Mesquite, Nevada Weather observations

Data are for observation ending at time listed.
 Day   Time    Ave.   Ave.  Ave.  Vector   Max.   Stn.    Total    Solar   Ave.  
  of    of     Air    Rel.  Wind   Wind    Wind   Baro.  Precip.   Rad.    Soil  
Year   Day     Temp.  Hum.  Speed  Dir.    Gust   Pres.                    Temp. 
2015   (PST)    F      %     mph   deg.    mph     mb.     in.     W/m2     F   
------------------------------------------------------------------------------
  26    4:10   50.6    51    0.1    74      2.9   956.6    0.00       0    48.9
  26    4:20   50.0    52    3.2    58      5.9   956.5    0.00       0    48.1
  26    4:30   50.7    51    2.7    51      7.6   956.4    0.00       0    48.8
  26    4:40   49.9    52    0.2    62      3.9   956.3    0.00       0    47.3
  26    4:50   49.2    53    0.0     0      0.0   956.3    0.00       0    47.2
  26    5:00   49.2    53    0.0     0      0.0   956.2    0.00       0    47.5
  26    5:10   49.3    53    0.1    27      2.0   956.1    0.00       0    47.8
  26    5:20   49.0    53    1.7    73      5.1   956.2    0.00       0    47.1
  26    5:30   47.7    56    4.6    39      7.8   956.3    0.00       0    46.4
  26    5:40   48.5    55    7.5    64      8.8   956.3    0.00       0    47.3
  26    5:50   47.8    56    4.0    66      6.4   956.5    0.00       0    46.2
  26    6:00   48.5    55    1.1     9      6.5   956.6    0.00       0    46.7
  26    6:10   52.6    47    6.2   344      8.8   956.6    0.00       0    50.8
  26    6:20   54.0    44    2.9   310      7.2   956.6    0.00       0    50.5
  26    6:30   52.3    47    5.0   329      9.3   956.5    0.00       0    49.9
  26    6:40   53.3    45    2.5   335      9.0   956.6    0.00       0    49.3
  26    6:50   47.7    56    5.2    35      8.0   956.6    0.00       2    45.9
  26    7:00   45.0    62    5.9    47      8.0   956.7    0.00       6    45.2
  26    7:10   45.6    61    6.0    56      8.1   956.7    0.00      11    46.0
  26    7:20   46.7    59    5.6    50      8.0   956.8    0.00      23    46.8
  26    7:30   48.5    55    5.0    43      7.2   956.7    0.00      39    48.9
  26    7:40   50.0    52    3.9    44      5.8   956.6    0.00      47    49.9
  26    7:50   50.6    52    3.2    70      5.4   956.6    0.00      75    51.4
  26    8:00   51.5    51    4.3    47      5.9   956.7    0.00     132    54.5
  26    8:10   53.2    48    4.0    38      6.1   956.8    0.00     154    57.0
  26    8:20   54.7    46    3.7    54      5.9   956.8    0.00     113    56.2
  26    8:30   55.2    45    3.9    49      6.6   956.8    0.00      86    55.5
  26    8:40   56.7    42    4.5    68      9.1   956.8    0.00     151    58.3
  26    8:50   57.2    42    5.1    86      7.7   956.7    0.00     227    60.9
  26    9:00   58.8    38    6.1    78     10.7   956.8    0.00     179    61.1
  26    9:10   60.4    37    5.6   102      9.0   956.8    0.00     236    63.2
  26    9:20   61.2    35    4.9    91      8.3   956.8    0.00     148    62.2
  26    9:30   63.0    31    8.0    30     13.2   956.8    0.00     178    64.8
  26    9:40   65.4    29    6.3     6     11.5   956.9    0.00     353    71.2
  26    9:50   66.8    27    3.8    14      8.4   957.0    0.00     255    69.9
  26   10:00   65.4    28    8.6    59     12.9   957.0    0.00     213    67.4
  26   10:10   64.8    28   11.8    35     20.0   956.8    0.00     246    67.9
  26   10:20   64.5    28   12.3    28     18.3   956.6    0.00     225    67.1
  26   10:30   65.1    27    8.7    31     15.0   956.5    0.00     262    69.0
  26   10:40   65.1    27    9.4    37     16.9   956.1    0.00     273    69.4
  26   10:50   66.3    27    6.8    52     10.0   955.9    0.00     347    72.8
  26   11:00   66.4    27    5.8    89      8.9   955.8    0.00     357    73.0
  26   11:10   65.9    28    6.1    82      8.4   955.7    0.00     301    72.0
  26   11:20   66.5    27    5.5    82      9.8   955.5    0.00     360    73.9
  26   11:30   67.6    26    2.4    90      5.8   955.4    0.00     353    75.1
  26   11:40   68.0    26    3.3    72      5.4   955.2    0.00     441    79.5
  26   11:50   69.0    25    3.1    31      6.1   955.0    0.00     332    78.5
  26   12:00   68.4    26    3.0    66      5.0   954.8    0.00     342    77.7
  26   12:10   68.4    26    3.1    77      6.1   954.5    0.00     346    78.0
  26   12:20   68.3    25    4.1    56      6.8   954.3    0.00     284    76.6
  26   12:30   68.2    25    3.1    61      4.7   954.1    0.00     210    74.3
  26   12:40   68.3    25    3.4    75      5.4   953.9    0.00     273    75.5
  26   12:50   69.0    25    4.5    90      6.9   953.7    0.00     229    74.3
  26   13:00   69.1    24    3.3   107      6.2   953.5    0.00     226    73.8
  26   13:10   69.7    24    1.1   194      2.6   953.4    0.00     187    71.5
  26   13:20   69.8    24    1.0   252      2.6   953.3    0.00     310    75.3
  26   13:30   71.4    23    1.2   193      2.7   953.2    0.00     386    78.2
  26   13:40   71.5    22    1.3   238      3.3   953.1    0.00     316    76.8
  26   13:50   71.6    22    1.1   219      2.2   953.0    0.00     319    77.8
  26   14:00   72.7    21    1.1   268      2.7   952.9    0.00     317    79.0
  26   14:10   71.8    22    1.9   276      4.2   952.9    0.00     200    75.7
  26   14:20   71.4    22    1.5   246      2.9   952.8    0.00     186    74.8
  26   14:30   72.5    22    0.9   281      4.6   952.8    0.00     243    80.5
  26   14:40   72.1    22    2.5   257      4.6   952.8    0.00     256    76.4
  26   14:50   71.9    22    2.5   265      4.8   952.8    0.00     246    77.3
  26   15:00   72.1    22    2.7   295      4.8   952.8    0.00     206    77.7
  26   15:10   71.7    22    3.4   273      5.8   952.9    0.00     204    76.8
  26   15:20   71.4    22    3.9   286      6.4   952.9    0.00     131    74.5
  26   15:30   71.1    23    4.5   297      6.1   952.8    0.00     105    73.2
  26   15:40   71.7    22    2.7   288      4.7   952.8    0.00     135    74.8
  26   15:50   72.3    21    2.3   289      4.0   952.8    0.00     165    76.7
  26   16:00   73.0    21    1.9   321      3.3   952.8    0.00     127    76.8
  26   16:10   72.4    21    1.7   349      2.8   952.8    0.00     104    76.7
  26   16:20   72.5    22    0.8   353      1.9   952.8    0.00      61    73.0
  26   16:30   70.9    23    1.1    92      1.8   952.8    0.00      31    69.8
  26   16:40   69.3    25    3.5   120      4.5   952.8    0.00      15    68.5
  26   16:50   68.1    26    3.5   134      4.6   952.8    0.00       8    67.7
  26   17:00   67.8    26    2.7   146      3.9   952.8    0.00       2    66.9
  26   17:10   68.2    25    1.6   180      2.6   952.9    0.00       0    66.1
  26   17:20   67.9    25    2.4   250      5.3   952.9    0.00       0    65.8
  26   17:30   68.4    25    3.4   248      5.8   952.8    0.00       0    67.2
  26   17:40   68.0    25    3.3   234      6.4   952.9    0.00       0    66.9
  26   17:50   66.3    27    2.0   169      3.6   953.0    0.00       0    64.7
  26   18:00   65.0    29    2.5   171      4.6   953.1    0.00       0    63.7
  26   18:10   65.0    29    1.8   184      3.1   953.1    0.00       0    63.7
  26   18:20   63.1    32    2.5    56      5.1   953.3    0.00       0    60.5
  26   18:30   61.0    34    3.7    64      4.7   953.5    0.00       0    59.9
  26   18:40   60.7    34    1.9    59      3.1   953.3    0.00       0    59.0
  26   18:50   61.0    34    1.2    27      1.9   953.1    0.00       0    59.4
  26   19:00   61.7    32    1.0    72      1.5   953.2    0.00       0    59.9
  26   19:10   62.8    32    3.1   118      6.9   953.4    0.00       0    60.6
  26   19:20   58.4    39    3.8    88      6.3   953.6    0.00       0    57.9
  26   19:30   57.2    41    3.5   101      4.6   953.6    0.00       0    57.0
  26   19:40   57.5    40    2.1    89      2.9   953.6    0.00       0    56.9
  26   19:50   58.1    38    1.7    73      2.4   953.6    0.00       0    57.7
  26   20:00   59.4    35    1.8    60      3.0   953.7    0.00       0    57.9
  26   20:10   59.5    36    1.5    33      3.7   953.8    0.00       0    58.0
  26   20:20   58.9    37    1.0    97      3.9   954.0    0.00       0    58.7
  26   20:30   59.3    37    1.9   268      3.6   953.9    0.00       0    58.8
  26   20:40   59.1    38    1.5   223      2.4   953.9    0.00       0    58.7
  26   20:50   58.8    39    1.3   265      2.9   953.9    0.00       0    58.4
  26   21:00   58.9    39    2.5   230      4.1   953.9    0.00       0    58.7
  26   21:10   58.8    39    3.8   271      4.5   953.8    0.00       0    58.7
  26   21:20   58.1    40    4.8   196      6.3   953.9    0.00       0    57.9
  26   21:30   57.2    41    3.3   139      4.5   954.2    0.00       0    57.5
  26   21:40   57.1    41    2.7   105      3.8   954.4    0.00       0    57.5
  26   21:50   56.5    43    3.2    59      4.5   954.6    0.00       0    56.7
  26   22:00   56.6    43    5.0   342      9.2   954.2    0.00       0    57.2
  26   22:10   57.7    41    7.9    86     12.5   954.2    0.00       0    57.7
  26   22:20   56.8    44    2.5    85      5.2   954.7    0.00       0    57.1
  26   22:30   57.0    43    1.8    36      3.7   954.6    0.00       0    57.3
  26   22:40   57.5    42    3.3    59      7.4   954.8    0.00       0    57.4
  26   22:50   56.3    45    6.8    84      8.6   955.2    0.00       0    56.7
  26   23:00   56.3    46    3.0    70      5.1   955.3    0.00       0    56.6
  26   23:10   56.7    44    3.6    63      5.8   955.4    0.00       0    56.4
  26   23:20   56.6    45    4.3    42      5.6   955.5    0.00       0    56.8
  26   23:30   56.7    45    3.4    31      4.2   955.6    0.00       0    56.7
  26   23:40   57.2    42    2.2    26      4.6   955.7    0.00       0    57.2
  26   23:50   58.2    41    3.4   321      6.1   955.7    0.00       0    57.6
  27    0:00   59.6    39    6.1   274     13.6   955.6    0.00       0    59.3
  27    0:10   60.4    40    6.3   266     11.3   955.7    0.00       0    59.8
  27    0:20   60.0    45    5.6   245      9.1   956.0    0.00       0    59.3
  27    0:30   58.8    54    4.6   248      8.4   956.1    0.00       0    58.0
  27    0:40   57.9    56    2.8   223      6.4   956.3    0.00       0    57.5
  27    0:50   57.5    58    2.8   234      6.1   956.5    0.00       0    57.1
  27    1:00   57.1    62    5.0   254      9.3   956.6    0.00       0    56.2
  27    1:10   56.1    68    4.5   257      7.5   956.8    0.00       0    55.0
  27    1:20   55.2    73    2.7   212      6.1   957.1    0.00       0    53.7
  27    1:30   54.4    76    4.6   238     12.7   957.4    0.01       0    52.2
  27    1:40   54.4    76    5.7   239     11.6   957.5    0.00       1    52.8
  27    1:50   54.6    75    2.9   236     10.9   957.8    0.01       0    53.4
  27    2:00   54.4    77    0.4    98      6.8   957.9    0.00       0    52.7
  27    2:10   52.7    84    0.5    62      3.4   958.0    0.01       0    52.4
  27    2:20   52.0    87    1.5    68      3.7   958.1    0.01       0    52.2
  27    2:30   51.9    89    0.2    52      3.1   958.2    0.01       0    52.3
  27    2:40   51.7    90    0.4    42      4.5   958.2    0.01       0    52.2
  27    2:50   51.7    90    3.7    22      7.8   957.8    0.01       0    51.8
  27    3:00   51.6    90    4.3    14      8.8   957.3    0.01       0    51.7
  27    3:10   51.6    90    0.5    14      8.2   957.3    0.00       0    51.7
  27    3:20   51.7    90    0.0    44      1.8   957.3    0.00       0    51.3
  27    3:30   52.1    88    0.0   160      0.5   957.6    0.00       0    51.1
  27    3:40   51.8    88    0.0     0      0.0   957.6    0.00       0    51.1
  27    3:50   51.7    89    0.0     0      0.0   957.7    0.00       0    51.2
  27    4:00   51.8    89    0.0     0      0.0   957.7    0.01       0    51.2

Return to Mesquite, Nevada graphs page.


Western Regional Climate Center,wrcc@dri.edu